createdAt,value
2023-02-28T00:00:45.559Z,1.00
2023-02-28T00:03:14.072Z,1.27
2023-02-28T00:05:42.487Z,0.70
2023-02-28T00:08:11.472Z,0.83
2023-02-28T00:10:39.793Z,0.80
2023-02-28T00:13:10.232Z,1.13
2023-02-28T00:15:38.564Z,0.50
2023-02-28T00:18:07.047Z,0.70
2023-02-28T00:20:35.438Z,0.70
2023-02-28T00:23:03.789Z,0.83
2023-02-28T00:25:32.173Z,0.83
2023-02-28T00:28:00.573Z,0.90
2023-02-28T00:30:30.309Z,1.10
2023-02-28T00:32:58.634Z,1.27
2023-02-28T00:35:27.036Z,1.00
2023-02-28T00:37:55.390Z,0.60
2023-02-28T00:40:23.784Z,0.97
2023-02-28T00:42:51.826Z,0.80
2023-02-28T00:45:21.141Z,0.83
2023-02-28T00:47:50.868Z,0.73
2023-02-28T00:50:19.901Z,0.87
2023-02-28T00:52:48.515Z,1.00
2023-02-28T00:55:17.477Z,1.00
2023-02-28T00:57:45.877Z,1.10
2023-02-28T01:00:14.897Z,1.10
2023-02-28T01:02:43.296Z,0.97
2023-02-28T01:05:13.016Z,0.90
2023-02-28T01:07:41.467Z,0.40
2023-02-28T01:10:10.664Z,0.70
2023-02-28T01:12:38.996Z,0.57
2023-02-28T01:15:07.888Z,0.90
2023-02-28T01:17:38.692Z,0.90
2023-02-28T01:20:07.644Z,0.60
2023-02-28T01:22:38.453Z,0.70
2023-02-28T01:25:07.228Z,0.80
2023-02-28T01:27:36.782Z,0.90
2023-02-28T01:30:05.605Z,1.07
2023-02-28T01:32:34.032Z,1.00
2023-02-28T01:35:02.460Z,1.20
2023-02-28T01:37:30.811Z,0.90
2023-02-28T01:40:00.375Z,0.73
2023-02-28T01:42:28.832Z,1.30
2023-02-28T01:44:59.907Z,0.50
2023-02-28T01:47:29.986Z,1.30
2023-02-28T01:49:58.316Z,0.90
2023-02-28T01:52:26.962Z,0.63
2023-02-28T01:54:56.732Z,0.70
2023-02-28T01:57:28.196Z,0.80
2023-02-28T01:59:59.526Z,0.90
2023-02-28T02:02:28.469Z,1.20
2023-02-28T02:04:59.601Z,1.10
2023-02-28T02:07:29.048Z,0.70
2023-02-28T02:10:02.955Z,0.80
2023-02-28T02:12:39.514Z,0.80
2023-02-28T02:15:12.412Z,0.80
2023-02-28T02:17:42.268Z,0.80
2023-02-28T02:20:30.385Z,0.87
2023-02-28T02:23:10.520Z,0.90
2023-02-28T02:25:42.898Z,0.90
2023-02-28T02:28:35.418Z,1.10
2023-02-28T02:31:28.708Z,0.60
2023-02-28T02:34:15.901Z,0.60
2023-02-28T02:36:50.335Z,0.43
2023-02-28T02:39:21.112Z,0.53
2023-02-28T02:41:52.117Z,0.60
2023-02-28T02:44:24.017Z,0.70
2023-02-28T02:46:55.383Z,0.70
2023-02-28T02:49:25.888Z,0.97
2023-02-28T02:51:56.501Z,0.80
2023-02-28T02:54:29.807Z,0.77
2023-02-28T02:57:00.045Z,0.50
2023-02-28T02:59:30.130Z,1.23
2023-02-28T03:02:02.120Z,1.40
2023-02-28T03:04:33.143Z,0.77
2023-02-28T03:07:02.847Z,0.87
2023-02-28T03:09:31.156Z,1.00
2023-02-28T03:11:59.917Z,0.60
2023-02-28T03:14:31.801Z,1.00
2023-02-28T03:17:05.968Z,0.67
2023-02-28T03:19:40.272Z,0.90
2023-02-28T03:22:18.742Z,0.70
2023-02-28T03:24:51.174Z,0.57
2023-02-28T03:27:23.942Z,0.80
2023-02-28T03:29:54.696Z,1.10
2023-02-28T04:42:41.015Z,0.70
2023-02-28T04:45:12.339Z,1.03
2023-02-28T04:47:40.717Z,0.83
2023-02-28T04:50:09.714Z,0.77
2023-02-28T04:52:38.027Z,1.00
2023-02-28T04:55:06.902Z,0.90
2023-02-28T04:57:35.197Z,0.63
2023-02-28T05:00:05.714Z,0.50
2023-02-28T05:02:36.821Z,0.93
2023-02-28T05:05:05.490Z,0.70
2023-02-28T05:07:33.947Z,0.93
2023-02-28T05:10:02.561Z,1.00
2023-02-28T05:12:30.973Z,1.00
2023-02-28T05:14:59.399Z,0.70
2023-02-28T05:17:27.819Z,0.90
2023-02-28T05:20:09.755Z,0.70
2023-02-28T05:22:42.459Z,1.20
2023-02-28T05:25:13.597Z,0.73
2023-02-28T05:27:41.995Z,0.50
2023-02-28T05:30:12.319Z,1.52
2023-02-28T05:32:43.762Z,1.40
2023-02-28T05:35:13.931Z,0.60
2023-02-28T05:37:42.538Z,1.23
2023-02-28T05:40:12.394Z,0.67
2023-02-28T05:42:40.814Z,1.07
2023-02-28T05:45:10.103Z,0.93
2023-02-28T05:47:38.524Z,1.20
2023-02-28T05:50:07.665Z,0.80
2023-02-28T05:52:37.438Z,1.10
2023-02-28T05:55:06.047Z,0.97
2023-02-28T05:57:34.400Z,0.73
2023-02-28T06:00:02.739Z,1.23
2023-02-28T06:02:31.059Z,1.10
2023-02-28T06:04:59.502Z,1.00
2023-02-28T06:07:27.837Z,0.80
2023-02-28T06:09:57.648Z,1.47
2023-02-28T06:12:26.024Z,1.30
2023-02-28T06:14:54.414Z,1.17
2023-02-28T06:17:22.858Z,1.00
2023-02-28T06:19:51.342Z,1.20
2023-02-28T06:22:19.698Z,1.37
2023-02-28T06:24:48.133Z,1.10
2023-02-28T06:27:17.925Z,1.40
2023-02-28T06:29:45.988Z,1.53
2023-02-28T06:32:14.462Z,1.10
2023-02-28T06:34:42.810Z,0.80
2023-02-28T06:37:11.243Z,0.77
2023-02-28T06:39:40.162Z,1.20
2023-02-28T06:42:08.522Z,1.27
2023-02-28T06:44:38.917Z,0.70
2023-02-28T06:47:08.309Z,1.13
2023-02-28T06:49:37.691Z,0.93
2023-02-28T06:52:06.258Z,1.60
2023-02-28T06:54:34.319Z,1.40
2023-02-28T06:57:02.731Z,1.30
2023-02-28T06:59:31.118Z,1.20
2023-02-28T07:02:01.363Z,1.40
2023-02-28T07:04:29.888Z,1.37
2023-02-28T07:06:58.296Z,1.77
2023-02-28T07:09:31.086Z,1.57
2023-02-28T07:11:59.203Z,1.37
2023-02-28T07:14:27.617Z,1.57
2023-02-28T07:16:55.994Z,2.57
2023-02-28T07:19:25.752Z,1.33
2023-02-28T07:21:54.090Z,1.30
2023-02-28T07:24:24.753Z,1.80
2023-02-28T07:26:53.107Z,1.00
2023-02-28T07:29:21.496Z,1.60
2023-02-28T07:31:51.671Z,1.60
2023-02-28T07:34:20.147Z,1.23
2023-02-28T07:36:50.002Z,1.47
2023-02-28T07:39:18.341Z,1.17
2023-02-28T07:41:46.756Z,1.30
2023-02-28T07:44:15.140Z,1.83
2023-02-28T07:46:43.588Z,1.53
2023-02-28T07:49:11.885Z,1.73
2023-02-28T07:51:40.464Z,1.20
2023-02-28T07:54:10.221Z,1.40
2023-02-28T07:56:38.651Z,1.30
2023-02-28T07:59:07.022Z,1.50
2023-02-28T08:01:35.508Z,1.50
2023-02-28T08:04:03.954Z,1.73
2023-02-28T08:06:32.314Z,1.40
2023-02-28T08:09:00.733Z,1.60
2023-02-28T08:11:30.814Z,1.67
2023-02-28T08:13:59.500Z,2.17
2023-02-28T08:16:27.849Z,1.30
2023-02-28T08:18:56.395Z,2.60
2023-02-28T08:21:24.792Z,1.97
2023-02-28T08:23:54.099Z,1.90
2023-02-28T08:26:23.009Z,2.17
2023-02-28T08:28:53.232Z,2.17
2023-02-28T08:31:21.846Z,2.00
2023-02-28T08:33:52.091Z,1.80
2023-02-28T08:36:20.670Z,3.20
2023-02-28T08:38:49.157Z,3.37
2023-02-28T08:41:17.573Z,2.23
2023-02-28T08:43:46.109Z,1.60
2023-02-28T08:46:16.202Z,2.33
2023-02-28T08:48:44.918Z,1.67
2023-02-28T08:51:14.188Z,1.73
2023-02-28T08:53:42.867Z,1.63
2023-02-28T08:56:11.929Z,1.50
2023-02-28T08:58:40.405Z,1.70
2023-02-28T09:01:13.003Z,1.70
2023-02-28T09:03:43.205Z,1.83
2023-02-28T09:06:12.372Z,1.57
2023-02-28T09:08:41.133Z,1.50
2023-02-28T09:11:09.508Z,1.63
2023-02-28T09:13:38.192Z,2.90
2023-02-28T09:16:07.364Z,1.90
2023-02-28T09:18:38.273Z,1.70
2023-02-28T09:21:08.419Z,1.87
2023-02-28T09:23:39.032Z,1.60
2023-02-28T09:26:07.744Z,1.67
2023-02-28T09:28:36.230Z,1.87
2023-02-28T09:31:05.784Z,1.30
2023-02-28T09:33:35.273Z,1.83
2023-02-28T09:36:04.846Z,1.93
2023-02-28T09:38:34.348Z,2.07
2023-02-28T09:41:04.740Z,2.00
2023-02-28T09:43:36.251Z,1.70
2023-02-28T09:46:09.051Z,1.67
2023-02-28T09:48:41.116Z,2.57
2023-02-28T09:51:30.322Z,2.90
2023-02-28T09:54:02.027Z,4.17
2023-02-28T09:56:35.527Z,4.87
2023-02-28T09:59:05.114Z,4.83
2023-02-28T10:01:39.255Z,4.67
2023-02-28T10:04:16.789Z,5.03
2023-02-28T10:06:50.806Z,6.33
2023-02-28T10:09:25.171Z,6.83
2023-02-28T10:11:57.167Z,7.23
2023-02-28T10:14:30.829Z,7.10
2023-02-28T10:17:03.823Z,7.03
2023-02-28T10:19:36.690Z,6.43
2023-02-28T10:22:12.815Z,5.97
2023-02-28T10:24:44.868Z,6.40
2023-02-28T10:27:19.599Z,6.17
2023-02-28T10:29:50.070Z,6.17
2023-02-28T10:32:20.329Z,6.50
2023-02-28T10:34:53.652Z,7.25
2023-02-28T10:37:22.506Z,5.95
2023-02-28T10:39:51.918Z,6.22
2023-02-28T10:42:27.003Z,7.13
2023-02-28T10:45:13.057Z,6.07
2023-02-28T10:47:54.911Z,5.60
2023-02-28T10:50:30.589Z,5.77
2023-02-28T10:53:17.946Z,4.80
2023-02-28T10:55:47.416Z,4.57
2023-02-28T10:58:24.421Z,3.97
2023-02-28T11:00:53.527Z,3.90
2023-02-28T11:03:42.356Z,3.47
2023-02-28T11:06:14.080Z,4.00
2023-02-28T11:08:47.487Z,4.17
2023-02-28T11:11:17.890Z,3.83
2023-02-28T11:13:48.301Z,3.53
2023-02-28T11:16:18.083Z,5.20
2023-02-28T11:18:49.627Z,3.30
2023-02-28T11:21:23.050Z,2.27
2023-02-28T11:23:52.165Z,2.67
2023-02-28T11:26:40.627Z,2.30
2023-02-28T11:29:13.178Z,2.00
2023-02-28T11:31:41.592Z,2.07
2023-02-28T11:34:25.854Z,2.07
2023-02-28T11:36:54.872Z,1.90
2023-02-28T11:39:23.572Z,1.43
2023-02-28T11:42:09.898Z,1.90
2023-02-28T11:44:46.768Z,1.83
2023-02-28T11:47:18.803Z,2.03
2023-02-28T11:49:51.254Z,1.50
2023-02-28T11:52:23.928Z,1.90
2023-02-28T11:55:04.207Z,2.30
2023-02-28T11:57:52.509Z,1.90
2023-02-28T12:00:34.830Z,1.80
2023-02-28T12:03:09.669Z,1.63
2023-02-28T12:05:46.999Z,1.70
2023-02-28T12:08:22.203Z,2.00
2023-02-28T12:11:00.140Z,2.10
2023-02-28T12:13:30.534Z,2.00
2023-02-28T12:16:16.856Z,1.93
2023-02-28T12:18:51.948Z,1.87
2023-02-28T12:21:23.668Z,2.40
2023-02-28T12:24:04.858Z,2.17
2023-02-28T12:26:37.367Z,1.90
2023-02-28T12:29:10.982Z,1.87
2023-02-28T12:31:43.054Z,2.00
2023-02-28T12:34:14.034Z,2.33
2023-02-28T12:36:45.372Z,1.80
2023-02-28T12:39:15.667Z,1.63
2023-02-28T12:41:44.955Z,1.60
2023-02-28T12:44:15.505Z,2.07
2023-02-28T12:46:47.593Z,1.80
2023-02-28T12:49:17.909Z,2.37
2023-02-28T12:51:47.927Z,2.10
2023-02-28T12:54:26.851Z,2.60
2023-02-28T12:56:59.694Z,2.83
2023-02-28T12:59:30.184Z,2.40
2023-02-28T13:02:19.499Z,2.40
2023-02-28T13:05:06.554Z,2.33
2023-02-28T13:07:53.662Z,2.10
2023-02-28T13:10:22.051Z,2.20
2023-02-28T13:12:51.744Z,1.77
2023-02-28T13:15:23.069Z,2.07
2023-02-28T13:17:52.209Z,2.10
2023-02-28T13:20:22.047Z,2.17
2023-02-28T13:22:53.661Z,2.43
2023-02-28T13:25:55.719Z,2.43
2023-02-28T13:29:09.346Z,2.80
2023-02-28T13:31:56.489Z,2.73
2023-02-28T13:34:24.884Z,2.60
2023-02-28T13:37:02.512Z,2.73
2023-02-28T13:39:45.710Z,3.30
2023-02-28T13:42:27.491Z,2.80
2023-02-28T13:45:25.596Z,2.77
2023-02-28T13:48:02.522Z,2.87
2023-02-28T13:50:32.754Z,2.70
2023-02-28T13:53:06.878Z,2.87
2023-02-28T13:55:39.046Z,2.80
2023-02-28T13:58:13.977Z,2.67
2023-02-28T14:00:55.649Z,2.73
2023-02-28T14:03:44.478Z,2.60
2023-02-28T14:06:18.250Z,2.60
2023-02-28T14:08:54.775Z,2.60
2023-02-28T14:11:27.615Z,2.80
2023-02-28T14:13:57.637Z,2.40
2023-02-28T14:16:27.621Z,2.87
2023-02-28T14:18:59.411Z,2.87
2023-02-28T14:21:29.987Z,2.73
2023-02-28T14:24:25.949Z,2.57
2023-02-28T14:27:06.177Z,2.57
2023-02-28T14:29:56.327Z,1.77
2023-02-28T14:32:30.983Z,2.17
2023-02-28T14:35:05.394Z,1.83
2023-02-28T14:37:36.375Z,2.40
2023-02-28T14:40:05.976Z,2.10
2023-02-28T14:42:35.031Z,2.37
2023-02-28T14:45:04.923Z,2.23
2023-02-28T14:47:34.603Z,2.10
2023-02-28T14:50:04.702Z,2.13
2023-02-28T14:52:34.228Z,2.37
2023-02-28T14:55:03.367Z,2.70
2023-02-28T14:57:32.837Z,2.40
2023-02-28T15:00:02.617Z,2.50
2023-02-28T15:02:34.439Z,2.73
2023-02-28T15:05:03.653Z,2.80
2023-02-28T15:07:32.094Z,2.07
2023-02-28T15:10:10.058Z,2.00
2023-02-28T15:12:38.984Z,1.83
2023-02-28T15:15:08.775Z,2.10
2023-02-28T15:17:38.587Z,2.03
2023-02-28T15:20:07.756Z,1.93
2023-02-28T15:22:37.992Z,1.67
2023-02-28T15:25:09.114Z,1.87
2023-02-28T15:27:38.886Z,1.67
2023-02-28T15:30:08.624Z,1.93
2023-02-28T15:32:40.733Z,2.10
2023-02-28T15:35:22.785Z,1.70
2023-02-28T15:37:55.580Z,1.80
2023-02-28T15:40:26.769Z,1.70
2023-02-28T15:43:02.513Z,2.30
2023-02-28T15:45:36.193Z,1.97
2023-02-28T15:48:14.309Z,1.70
2023-02-28T15:50:43.428Z,1.90
2023-02-28T15:53:16.239Z,2.00
2023-02-28T15:55:44.883Z,1.80
2023-02-28T15:58:14.945Z,2.20
2023-02-28T16:00:50.560Z,1.60
2023-02-28T16:03:37.245Z,1.37
2023-02-28T16:06:12.873Z,1.50
2023-02-28T16:08:41.182Z,1.60
2023-02-28T16:11:11.309Z,1.60
2023-02-28T16:13:40.109Z,1.63
2023-02-28T16:16:08.812Z,1.67
2023-02-28T16:18:38.697Z,1.37
2023-02-28T16:21:07.354Z,1.60
2023-02-28T16:23:35.694Z,1.23
2023-02-28T16:26:06.054Z,1.50
2023-02-28T16:28:36.238Z,1.50
2023-02-28T16:31:05.766Z,1.60
2023-02-28T16:33:34.703Z,1.00
2023-02-28T16:36:04.852Z,1.20
2023-02-28T16:38:35.125Z,1.40
2023-02-28T16:41:03.657Z,1.40
2023-02-28T16:43:32.218Z,1.30
2023-02-28T16:46:02.367Z,1.83
2023-02-28T16:48:31.821Z,2.07
2023-02-28T16:51:00.395Z,2.10
2023-02-28T16:53:30.282Z,1.40
2023-02-28T16:55:58.732Z,1.60
2023-02-28T16:58:28.936Z,1.47
2023-02-28T17:00:57.405Z,1.27
2023-02-28T17:03:33.194Z,2.23
2023-02-28T17:06:02.370Z,1.70
2023-02-28T17:08:33.107Z,1.43
2023-02-28T17:11:02.795Z,1.40
2023-02-28T17:13:31.233Z,1.50
2023-02-28T17:15:59.845Z,1.67
2023-02-28T17:18:29.886Z,1.40
2023-02-28T17:20:58.396Z,1.87
2023-02-28T17:23:26.789Z,2.27
2023-02-28T17:25:58.246Z,1.50
2023-02-28T17:28:26.592Z,1.83
2023-02-28T17:30:55.052Z,2.23
2023-02-28T17:33:23.492Z,1.47
2023-02-28T17:35:52.084Z,2.17
2023-02-28T17:38:23.854Z,1.50
2023-02-28T17:40:57.900Z,1.80
2023-02-28T17:43:28.159Z,1.83
2023-02-28T17:45:56.773Z,1.87
2023-02-28T17:48:25.194Z,1.47
2023-02-28T17:50:53.589Z,1.53
2023-02-28T17:53:23.993Z,1.80
2023-02-28T17:55:52.368Z,1.63
2023-02-28T17:58:20.722Z,2.07
2023-02-28T18:00:54.790Z,1.73
2023-02-28T18:03:25.163Z,1.60
2023-02-28T18:05:53.810Z,2.00
2023-02-28T18:08:23.125Z,2.10
2023-02-28T18:10:51.165Z,2.43
2023-02-28T18:13:19.489Z,1.93
2023-02-28T18:15:48.527Z,1.77
2023-02-28T18:18:18.412Z,1.70
2023-02-28T18:20:49.440Z,1.27
2023-02-28T18:23:18.388Z,1.73
2023-02-28T18:25:46.805Z,1.70
2023-02-28T18:28:15.256Z,1.50
2023-02-28T18:30:43.573Z,1.70
2023-02-28T18:33:11.932Z,1.63
2023-02-28T18:35:44.480Z,1.93
2023-02-28T18:38:16.051Z,2.00
2023-02-28T18:40:45.055Z,1.80
2023-02-28T18:43:13.665Z,1.40
2023-02-28T18:45:42.041Z,1.60
2023-02-28T18:48:10.264Z,2.00
2023-02-28T18:50:39.680Z,1.67
2023-02-28T18:53:09.671Z,1.87
2023-02-28T18:55:38.011Z,1.87
2023-02-28T18:58:06.443Z,2.00
2023-02-28T19:00:35.395Z,1.90
2023-02-28T19:03:03.798Z,1.90
2023-02-28T19:05:34.427Z,1.80
2023-02-28T19:08:03.793Z,1.87
2023-02-28T19:10:33.550Z,1.60
2023-02-28T19:13:01.937Z,1.57
2023-02-28T19:15:30.370Z,1.50
2023-02-28T19:17:58.748Z,2.20
2023-02-28T19:20:27.285Z,1.50
2023-02-28T19:22:55.899Z,1.77
2023-02-28T19:25:24.746Z,1.83
2023-02-28T19:27:55.249Z,1.80
2023-02-28T19:30:23.989Z,1.33
2023-02-28T19:32:52.486Z,1.63
2023-02-28T19:35:20.967Z,1.87
2023-02-28T19:37:49.422Z,2.00
2023-02-28T19:40:17.876Z,2.10
2023-02-28T19:42:46.450Z,1.67
2023-02-28T19:45:16.423Z,2.60
2023-02-28T19:47:44.904Z,2.00
2023-02-28T19:50:13.622Z,2.27
2023-02-28T19:52:43.440Z,1.83
2023-02-28T19:55:12.313Z,2.20
2023-02-28T19:57:40.728Z,2.33
2023-02-28T20:00:09.994Z,2.43
2023-02-28T20:02:40.249Z,2.43
2023-02-28T20:05:09.728Z,2.03
2023-02-28T20:07:38.547Z,1.90
2023-02-28T20:10:07.778Z,1.97
2023-02-28T20:12:36.358Z,1.93
2023-02-28T20:15:05.485Z,1.97
2023-02-28T20:17:34.686Z,2.10
2023-02-28T20:20:05.174Z,2.13
2023-02-28T20:22:33.696Z,2.43
2023-02-28T20:25:02.315Z,2.27
2023-02-28T20:27:32.695Z,1.80
2023-02-28T20:30:01.160Z,1.93
2023-02-28T20:32:29.906Z,2.30
2023-02-28T20:34:58.660Z,2.20
2023-02-28T20:37:29.368Z,2.43
2023-02-28T20:39:57.772Z,2.10
2023-02-28T20:42:26.134Z,1.73
2023-02-28T20:44:54.592Z,2.40
2023-02-28T20:47:22.990Z,2.20
2023-02-28T20:49:51.537Z,2.00
2023-02-28T20:52:19.864Z,2.30
2023-02-28T20:54:49.693Z,2.83
2023-02-28T20:57:18.040Z,2.10
2023-02-28T20:59:46.492Z,1.70
2023-02-28T21:02:16.904Z,2.03
2023-02-28T21:04:45.445Z,2.30
2023-02-28T21:07:13.779Z,2.23
2023-02-28T21:09:42.352Z,1.90
2023-02-28T21:12:12.177Z,1.90
2023-02-28T21:14:40.562Z,2.70
2023-02-28T21:17:10.438Z,2.17
2023-02-28T21:19:38.839Z,2.60
2023-02-28T21:22:07.268Z,2.23
2023-02-28T21:24:35.731Z,2.80
2023-02-28T21:27:04.216Z,2.13
2023-02-28T21:29:33.932Z,2.73
2023-02-28T21:32:02.554Z,2.83
2023-02-28T21:34:30.976Z,1.90
2023-02-28T21:36:59.430Z,2.60
2023-02-28T21:39:30.154Z,2.73
2023-02-28T21:42:04.034Z,2.50
2023-02-28T21:44:34.756Z,2.70
2023-02-28T21:47:03.393Z,2.70
2023-02-28T21:49:32.084Z,2.07
2023-02-28T21:52:00.744Z,2.67
2023-02-28T21:54:29.373Z,2.67
2023-02-28T21:56:58.257Z,2.27
2023-02-28T21:59:26.861Z,2.57
2023-02-28T22:01:56.657Z,2.53
2023-02-28T22:04:25.286Z,2.03
2023-02-28T22:06:54.680Z,2.50
2023-02-28T22:09:23.472Z,2.03
2023-02-28T22:11:52.002Z,2.20
2023-02-28T22:14:20.569Z,2.27
2023-02-28T22:16:52.585Z,2.43
2023-02-28T22:19:24.693Z,2.37
2023-02-28T22:21:54.189Z,2.30
2023-02-28T22:24:24.651Z,2.20
2023-02-28T22:26:53.316Z,2.73
2023-02-28T22:29:21.851Z,1.90
2023-02-28T22:31:50.457Z,2.23
2023-02-28T22:34:18.967Z,2.13
2023-02-28T22:36:48.688Z,3.33
2023-02-28T22:39:17.984Z,3.20
2023-02-28T22:41:46.365Z,1.90
2023-02-28T22:44:16.468Z,2.40
2023-02-28T22:46:44.940Z,2.70
2023-02-28T22:49:13.365Z,2.53
2023-02-28T22:51:41.776Z,1.90
2023-02-28T22:54:12.113Z,2.40
2023-02-28T22:56:40.538Z,2.63
2023-02-28T22:59:08.966Z,2.63
2023-02-28T23:01:37.451Z,2.90
2023-02-28T23:04:06.023Z,2.57
2023-02-28T23:06:35.131Z,1.93
2023-02-28T23:09:05.492Z,2.90
2023-02-28T23:11:36.156Z,2.40
2023-02-28T23:14:05.026Z,2.70
2023-02-28T23:16:34.963Z,2.50
2023-02-28T23:19:04.365Z,2.37
2023-02-28T23:21:32.761Z,2.10
2023-02-28T23:24:02.761Z,1.90
2023-02-28T23:26:31.794Z,2.50
2023-02-28T23:29:01.996Z,2.03
2023-02-28T23:31:30.482Z,2.70
2023-02-28T23:33:58.950Z,2.20
2023-02-28T23:36:27.319Z,2.53
2023-02-28T23:38:55.791Z,2.53
2023-02-28T23:41:25.120Z,3.10
2023-02-28T23:43:53.930Z,2.90
2023-02-28T23:46:23.910Z,2.33
2023-02-28T23:48:52.318Z,2.40
2023-02-28T23:51:21.584Z,3.03
2023-02-28T23:53:51.583Z,2.40
2023-02-28T23:56:21.786Z,2.70
2023-02-28T23:58:50.231Z,2.37
